sensor_id;sensor_type;location;lat;lon;timestamp;P1;durP1;ratioP1;P2;durP2;ratioP2
17449;SDS011;8842;51.244;7.102;2023-11-18T00:04:52;8.50;;;8.10;;
17449;SDS011;8842;51.244;7.102;2023-11-18T00:09:56;8.80;;;8.40;;
17449;SDS011;8842;51.244;7.102;2023-11-18T00:15:01;8.40;;;8.00;;
17449;SDS011;8842;51.244;7.102;2023-11-18T00:20:07;8.23;;;7.83;;
17449;SDS011;8842;51.244;7.102;2023-11-18T00:25:14;8.27;;;7.87;;
17449;SDS011;8842;51.244;7.102;2023-11-18T00:35:29;8.60;;;8.20;;
17449;SDS011;8842;51.244;7.102;2023-11-18T00:40:34;8.40;;;8.00;;
17449;SDS011;8842;51.244;7.102;2023-11-18T00:45:38;8.57;;;8.17;;
17449;SDS011;8842;51.244;7.102;2023-11-18T00:50:45;8.40;;;8.00;;
17449;SDS011;8842;51.244;7.102;2023-11-18T00:56:14;8.70;;;8.10;;
17449;SDS011;8842;51.244;7.102;2023-11-18T01:01:20;8.60;;;8.20;;
17449;SDS011;8842;51.244;7.102;2023-11-18T01:06:24;8.70;;;8.30;;
17449;SDS011;8842;51.244;7.102;2023-11-18T01:11:29;8.70;;;8.30;;
17449;SDS011;8842;51.244;7.102;2023-11-18T01:16:41;8.77;;;8.37;;
17449;SDS011;8842;51.244;7.102;2023-11-18T01:21:46;9.07;;;8.57;;
17449;SDS011;8842;51.244;7.102;2023-11-18T01:26:50;8.30;;;7.90;;
17449;SDS011;8842;51.244;7.102;2023-11-18T01:37:06;9.13;;;8.63;;
17449;SDS011;8842;51.244;7.102;2023-11-18T01:42:10;8.37;;;7.97;;
17449;SDS011;8842;51.244;7.102;2023-11-18T01:47:22;8.03;;;7.60;;
17449;SDS011;8842;51.244;7.102;2023-11-18T01:52:26;7.87;;;7.47;;
17449;SDS011;8842;51.244;7.102;2023-11-18T01:57:39;7.90;;;7.50;;
17449;SDS011;8842;51.244;7.102;2023-11-18T02:02:45;8.30;;;7.90;;
17449;SDS011;8842;51.244;7.102;2023-11-18T02:07:50;8.20;;;7.80;;
17449;SDS011;8842;51.244;7.102;2023-11-18T02:12:55;9.30;;;8.70;;
17449;SDS011;8842;51.244;7.102;2023-11-18T02:18:04;7.70;;;7.30;;
17449;SDS011;8842;51.244;7.102;2023-11-18T02:23:12;8.10;;;7.70;;
17449;SDS011;8842;51.244;7.102;2023-11-18T02:28:16;8.13;;;7.73;;
17449;SDS011;8842;51.244;7.102;2023-11-18T02:33:30;8.30;;;7.90;;
17449;SDS011;8842;51.244;7.102;2023-11-18T02:38:38;8.30;;;7.90;;
17449;SDS011;8842;51.244;7.102;2023-11-18T02:43:53;7.83;;;7.43;;
17449;SDS011;8842;51.244;7.102;2023-11-18T02:49:05;8.00;;;7.60;;
17449;SDS011;8842;51.244;7.102;2023-11-18T02:54:09;7.80;;;7.40;;
17449;SDS011;8842;51.244;7.102;2023-11-18T02:59:14;7.70;;;7.30;;
17449;SDS011;8842;51.244;7.102;2023-11-18T03:04:18;7.77;;;7.37;;
17449;SDS011;8842;51.244;7.102;2023-11-18T03:09:22;7.33;;;7.03;;
17449;SDS011;8842;51.244;7.102;2023-11-18T03:14:35;7.40;;;7.10;;
17449;SDS011;8842;51.244;7.102;2023-11-18T03:19:39;7.77;;;7.37;;
17449;SDS011;8842;51.244;7.102;2023-11-18T03:24:44;7.70;;;7.30;;
17449;SDS011;8842;51.244;7.102;2023-11-18T03:29:48;7.30;;;7.00;;
17449;SDS011;8842;51.244;7.102;2023-11-18T03:34:52;8.70;;;8.13;;
17449;SDS011;8842;51.244;7.102;2023-11-18T03:39:56;7.70;;;7.30;;
17449;SDS011;8842;51.244;7.102;2023-11-18T03:45:00;7.70;;;7.30;;
17449;SDS011;8842;51.244;7.102;2023-11-18T03:50:05;7.30;;;7.00;;
17449;SDS011;8842;51.244;7.102;2023-11-18T03:55:19;8.20;;;7.80;;
17449;SDS011;8842;51.244;7.102;2023-11-18T04:00:22;8.03;;;7.63;;
17449;SDS011;8842;51.244;7.102;2023-11-18T04:05:36;7.90;;;7.50;;
17449;SDS011;8842;51.244;7.102;2023-11-18T04:10:41;8.77;;;7.50;;
17449;SDS011;8842;51.244;7.102;2023-11-18T04:15:45;7.50;;;7.13;;
17449;SDS011;8842;51.244;7.102;2023-11-18T04:20:50;8.20;;;7.80;;
17449;SDS011;8842;51.244;7.102;2023-11-18T04:25:54;7.67;;;7.27;;
17449;SDS011;8842;51.244;7.102;2023-11-18T04:30:58;7.70;;;7.30;;
17449;SDS011;8842;51.244;7.102;2023-11-18T04:36:10;7.60;;;7.20;;
17449;SDS011;8842;51.244;7.102;2023-11-18T04:41:16;7.77;;;7.37;;
17449;SDS011;8842;51.244;7.102;2023-11-18T04:46:20;7.70;;;7.30;;
17449;SDS011;8842;51.244;7.102;2023-11-18T04:51:32;7.40;;;7.10;;
17449;SDS011;8842;51.244;7.102;2023-11-18T04:56:36;8.13;;;7.73;;
17449;SDS011;8842;51.244;7.102;2023-11-18T05:01:47;8.00;;;7.60;;
17449;SDS011;8842;51.244;7.102;2023-11-18T05:06:52;8.87;;;8.37;;
17449;SDS011;8842;51.244;7.102;2023-11-18T05:11:56;8.30;;;7.90;;
17449;SDS011;8842;51.244;7.102;2023-11-18T05:17:08;8.00;;;7.60;;
17449;SDS011;8842;51.244;7.102;2023-11-18T05:22:13;8.53;;;8.10;;
17449;SDS011;8842;51.244;7.102;2023-11-18T05:27:17;8.70;;;8.13;;
17449;SDS011;8842;51.244;7.102;2023-11-18T05:32:21;8.10;;;7.70;;
17449;SDS011;8842;51.244;7.102;2023-11-18T05:37:32;8.50;;;8.10;;
17449;SDS011;8842;51.244;7.102;2023-11-18T05:42:39;8.30;;;7.90;;
17449;SDS011;8842;51.244;7.102;2023-11-18T05:47:50;8.50;;;8.10;;
17449;SDS011;8842;51.244;7.102;2023-11-18T05:52:55;10.97;;;9.40;;
17449;SDS011;8842;51.244;7.102;2023-11-18T05:57:59;9.03;;;8.53;;
17449;SDS011;8842;51.244;7.102;2023-11-18T06:03:04;9.80;;;9.20;;
17449;SDS011;8842;51.244;7.102;2023-11-18T06:08:08;8.50;;;8.10;;
17449;SDS011;8842;51.244;7.102;2023-11-18T06:13:20;8.50;;;8.00;;
17449;SDS011;8842;51.244;7.102;2023-11-18T06:18:24;8.37;;;7.97;;
17449;SDS011;8842;51.244;7.102;2023-11-18T06:23:36;8.20;;;7.80;;
17449;SDS011;8842;51.244;7.102;2023-11-18T06:28:40;8.47;;;8.07;;
17449;SDS011;8842;51.244;7.102;2023-11-18T06:33:52;8.23;;;7.83;;
17449;SDS011;8842;51.244;7.102;2023-11-18T06:38:56;8.63;;;8.23;;
17449;SDS011;8842;51.244;7.102;2023-11-18T06:44:01;8.87;;;8.20;;
17449;SDS011;8842;51.244;7.102;2023-11-18T06:49:07;10.13;;;9.30;;
17449;SDS011;8842;51.244;7.102;2023-11-18T06:54:13;9.87;;;9.27;;
17449;SDS011;8842;51.244;7.102;2023-11-18T06:59:25;8.90;;;8.40;;
17449;SDS011;8842;51.244;7.102;2023-11-18T07:04:29;9.63;;;8.93;;
17449;SDS011;8842;51.244;7.102;2023-11-18T07:09:33;8.67;;;8.27;;
17449;SDS011;8842;51.244;7.102;2023-11-18T07:14:38;8.70;;;8.30;;
17449;SDS011;8842;51.244;7.102;2023-11-18T07:19:50;10.03;;;9.47;;
17449;SDS011;8842;51.244;7.102;2023-11-18T07:24:54;9.40;;;8.80;;
17449;SDS011;8842;51.244;7.102;2023-11-18T07:29:58;10.03;;;9.53;;
17449;SDS011;8842;51.244;7.102;2023-11-18T07:35:03;9.40;;;8.90;;
17449;SDS011;8842;51.244;7.102;2023-11-18T07:40:15;9.70;;;9.07;;
17449;SDS011;8842;51.244;7.102;2023-11-18T07:50:32;10.23;;;9.13;;
17449;SDS011;8842;51.244;7.102;2023-11-18T07:55:37;10.43;;;9.83;;
17449;SDS011;8842;51.244;7.102;2023-11-18T08:00:49;10.13;;;9.10;;
17449;SDS011;8842;51.244;7.102;2023-11-18T08:05:53;9.50;;;9.00;;
17449;SDS011;8842;51.244;7.102;2023-11-18T08:10:57;9.37;;;8.87;;
17449;SDS011;8842;51.244;7.102;2023-11-18T08:21:12;9.37;;;8.87;;
17449;SDS011;8842;51.244;7.102;2023-11-18T08:26:16;8.90;;;8.43;;
17449;SDS011;8842;51.244;7.102;2023-11-18T08:31:28;9.17;;;8.70;;
17449;SDS011;8842;51.244;7.102;2023-11-18T08:36:32;8.70;;;8.23;;
17449;SDS011;8842;51.244;7.102;2023-11-18T08:41:36;8.40;;;8.00;;
17449;SDS011;8842;51.244;7.102;2023-11-18T08:46:41;9.70;;;9.10;;
17449;SDS011;8842;51.244;7.102;2023-11-18T08:51:45;10.20;;;9.60;;
17449;SDS011;8842;51.244;7.102;2023-11-18T08:56:57;10.00;;;9.50;;
17449;SDS011;8842;51.244;7.102;2023-11-18T09:02:01;9.40;;;8.90;;
17449;SDS011;8842;51.244;7.102;2023-11-18T09:07:07;9.50;;;9.00;;
17449;SDS011;8842;51.244;7.102;2023-11-18T09:12:12;10.17;;;9.57;;
17449;SDS011;8842;51.244;7.102;2023-11-18T09:17:17;10.60;;;9.57;;
17449;SDS011;8842;51.244;7.102;2023-11-18T09:22:23;9.40;;;8.90;;
17449;SDS011;8842;51.244;7.102;2023-11-18T09:27:27;10.13;;;9.43;;
17449;SDS011;8842;51.244;7.102;2023-11-18T09:32:32;9.90;;;9.27;;
17449;SDS011;8842;51.244;7.102;2023-11-18T09:37:37;9.30;;;8.70;;
17449;SDS011;8842;51.244;7.102;2023-11-18T09:42:41;9.23;;;8.73;;
17449;SDS011;8842;51.244;7.102;2023-11-18T09:47:54;9.50;;;8.90;;
17449;SDS011;8842;51.244;7.102;2023-11-18T09:52:59;10.70;;;8.73;;
17449;SDS011;8842;51.244;7.102;2023-11-18T09:58:09;8.07;;;7.67;;
17449;SDS011;8842;51.244;7.102;2023-11-18T10:03:21;8.87;;;8.43;;
17449;SDS011;8842;51.244;7.102;2023-11-18T10:08:25;8.53;;;8.13;;
17449;SDS011;8842;51.244;7.102;2023-11-18T10:13:32;8.63;;;7.93;;
17449;SDS011;8842;51.244;7.102;2023-11-18T10:18:38;8.73;;;8.23;;
17449;SDS011;8842;51.244;7.102;2023-11-18T10:29:09;8.23;;;7.57;;
17449;SDS011;8842;51.244;7.102;2023-11-18T10:34:15;9.47;;;8.50;;
17449;SDS011;8842;51.244;7.102;2023-11-18T10:39:20;8.60;;;7.80;;
17449;SDS011;8842;51.244;7.102;2023-11-18T10:44:31;9.30;;;8.60;;
17449;SDS011;8842;51.244;7.102;2023-11-18T10:49:36;7.70;;;7.30;;
17449;SDS011;8842;51.244;7.102;2023-11-18T10:54:48;9.17;;;8.57;;
17449;SDS011;8842;51.244;7.102;2023-11-18T10:59:59;7.77;;;7.37;;
17449;SDS011;8842;51.244;7.102;2023-11-18T11:05:11;8.73;;;8.23;;
17449;SDS011;8842;51.244;7.102;2023-11-18T11:10:18;8.43;;;7.93;;
17449;SDS011;8842;51.244;7.102;2023-11-18T11:15:25;7.80;;;7.40;;
17449;SDS011;8842;51.244;7.102;2023-11-18T11:25:43;7.77;;;7.37;;
17449;SDS011;8842;51.244;7.102;2023-11-18T11:30:58;8.90;;;8.00;;
17449;SDS011;8842;51.244;7.102;2023-11-18T11:36:11;9.60;;;9.00;;
17449;SDS011;8842;51.244;7.102;2023-11-18T11:41:19;10.33;;;9.67;;
17449;SDS011;8842;51.244;7.102;2023-11-18T11:46:25;9.80;;;9.30;;
17449;SDS011;8842;51.244;7.102;2023-11-18T11:51:36;10.13;;;9.63;;
17449;SDS011;8842;51.244;7.102;2023-11-18T11:56:51;11.30;;;10.70;;
17449;SDS011;8842;51.244;7.102;2023-11-18T12:01:59;12.00;;;11.30;;
17449;SDS011;8842;51.244;7.102;2023-11-18T12:07:08;12.17;;;11.57;;
17449;SDS011;8842;51.244;7.102;2023-11-18T12:12:21;13.93;;;13.13;;
17449;SDS011;8842;51.244;7.102;2023-11-18T12:17:28;14.00;;;13.20;;
17449;SDS011;8842;51.244;7.102;2023-11-18T12:23:03;13.00;;;12.30;;
17449;SDS011;8842;51.244;7.102;2023-11-18T12:28:17;13.50;;;12.80;;
17449;SDS011;8842;51.244;7.102;2023-11-18T12:33:24;13.83;;;13.13;;
17449;SDS011;8842;51.244;7.102;2023-11-18T12:38:42;13.90;;;13.20;;
17449;SDS011;8842;51.244;7.102;2023-11-18T12:43:59;14.00;;;13.30;;
17449;SDS011;8842;51.244;7.102;2023-11-18T12:49:19;14.20;;;13.40;;
17449;SDS011;8842;51.244;7.102;2023-11-18T12:54:26;14.80;;;13.87;;
17449;SDS011;8842;51.244;7.102;2023-11-18T12:59:31;14.97;;;14.17;;
17449;SDS011;8842;51.244;7.102;2023-11-18T13:04:35;13.20;;;12.50;;
17449;SDS011;8842;51.244;7.102;2023-11-18T13:09:47;14.10;;;13.40;;
17449;SDS011;8842;51.244;7.102;2023-11-18T13:14:52;13.97;;;13.07;;
17449;SDS011;8842;51.244;7.102;2023-11-18T13:19:56;13.63;;;12.93;;
17449;SDS011;8842;51.244;7.102;2023-11-18T13:25:00;12.60;;;11.90;;
17449;SDS011;8842;51.244;7.102;2023-11-18T13:30:08;14.07;;;12.97;;
17449;SDS011;8842;51.244;7.102;2023-11-18T13:35:22;12.60;;;11.90;;
17449;SDS011;8842;51.244;7.102;2023-11-18T13:40:27;12.17;;;11.57;;
17449;SDS011;8842;51.244;7.102;2023-11-18T13:50:44;12.50;;;11.70;;
17449;SDS011;8842;51.244;7.102;2023-11-18T13:55:49;12.63;;;11.93;;
17449;SDS011;8842;51.244;7.102;2023-11-18T14:00:53;12.30;;;11.70;;
17449;SDS011;8842;51.244;7.102;2023-11-18T14:05:59;12.30;;;11.60;;
17449;SDS011;8842;51.244;7.102;2023-11-18T14:11:05;13.13;;;12.43;;
17449;SDS011;8842;51.244;7.102;2023-11-18T14:16:11;12.70;;;12.00;;
17449;SDS011;8842;51.244;7.102;2023-11-18T14:21:23;13.73;;;12.93;;
17449;SDS011;8842;51.244;7.102;2023-11-18T14:26:28;13.60;;;12.90;;
17449;SDS011;8842;51.244;7.102;2023-11-18T14:31:40;13.40;;;12.70;;
17449;SDS011;8842;51.244;7.102;2023-11-18T14:36:44;12.60;;;11.90;;
17449;SDS011;8842;51.244;7.102;2023-11-18T14:41:48;12.63;;;11.93;;
17449;SDS011;8842;51.244;7.102;2023-11-18T14:46:53;13.80;;;12.93;;
17449;SDS011;8842;51.244;7.102;2023-11-18T14:51:57;13.00;;;12.30;;
17449;SDS011;8842;51.244;7.102;2023-11-18T14:57:01;14.10;;;13.37;;
17449;SDS011;8842;51.244;7.102;2023-11-18T15:02:06;15.53;;;14.40;;
17449;SDS011;8842;51.244;7.102;2023-11-18T15:07:10;14.73;;;13.70;;
17449;SDS011;8842;51.244;7.102;2023-11-18T15:12:22;14.50;;;13.70;;
17449;SDS011;8842;51.244;7.102;2023-11-18T15:17:26;14.13;;;13.40;;
17449;SDS011;8842;51.244;7.102;2023-11-18T15:22:39;15.23;;;14.27;;
17449;SDS011;8842;51.244;7.102;2023-11-18T15:27:45;15.80;;;14.90;;
17449;SDS011;8842;51.244;7.102;2023-11-18T15:32:50;15.30;;;14.30;;
17449;SDS011;8842;51.244;7.102;2023-11-18T15:38:05;14.73;;;13.93;;
17449;SDS011;8842;51.244;7.102;2023-11-18T15:43:11;13.90;;;13.20;;
17449;SDS011;8842;51.244;7.102;2023-11-18T15:48:15;15.10;;;14.30;;
17449;SDS011;8842;51.244;7.102;2023-11-18T15:53:35;14.17;;;13.37;;
17449;SDS011;8842;51.244;7.102;2023-11-18T15:58:39;14.00;;;13.30;;
17449;SDS011;8842;51.244;7.102;2023-11-18T16:03:44;14.50;;;13.70;;
17449;SDS011;8842;51.244;7.102;2023-11-18T16:08:58;15.20;;;14.30;;
17449;SDS011;8842;51.244;7.102;2023-11-18T16:14:03;13.90;;;13.10;;
17449;SDS011;8842;51.244;7.102;2023-11-18T16:19:08;13.87;;;13.07;;
17449;SDS011;8842;51.244;7.102;2023-11-18T16:24:12;14.43;;;13.07;;
17449;SDS011;8842;51.244;7.102;2023-11-18T16:29:24;14.23;;;13.53;;
17449;SDS011;8842;51.244;7.102;2023-11-18T16:39:42;14.10;;;13.40;;
17449;SDS011;8842;51.244;7.102;2023-11-18T16:44:47;14.83;;;13.70;;
17449;SDS011;8842;51.244;7.102;2023-11-18T16:49:51;13.93;;;13.23;;
17449;SDS011;8842;51.244;7.102;2023-11-18T16:54:55;14.23;;;13.53;;
17449;SDS011;8842;51.244;7.102;2023-11-18T17:00:10;14.30;;;13.50;;
17449;SDS011;8842;51.244;7.102;2023-11-18T17:05:19;14.00;;;13.30;;
17449;SDS011;8842;51.244;7.102;2023-11-18T17:10:24;13.80;;;13.10;;
17449;SDS011;8842;51.244;7.102;2023-11-18T17:15:28;13.80;;;13.10;;
17449;SDS011;8842;51.244;7.102;2023-11-18T17:20:40;13.27;;;12.57;;
17449;SDS011;8842;51.244;7.102;2023-11-18T17:25:44;14.13;;;13.43;;
17449;SDS011;8842;51.244;7.102;2023-11-18T17:30:48;14.00;;;13.30;;
17449;SDS011;8842;51.244;7.102;2023-11-18T17:36:00;13.67;;;12.97;;
17449;SDS011;8842;51.244;7.102;2023-11-18T17:41:05;13.90;;;13.20;;
17449;SDS011;8842;51.244;7.102;2023-11-18T17:46:09;14.10;;;13.30;;
17449;SDS011;8842;51.244;7.102;2023-11-18T17:51:23;13.97;;;13.27;;
17449;SDS011;8842;51.244;7.102;2023-11-18T17:56:28;14.00;;;13.30;;
17449;SDS011;8842;51.244;7.102;2023-11-18T18:01:40;13.57;;;12.87;;
17449;SDS011;8842;51.244;7.102;2023-11-18T18:06:44;13.80;;;13.10;;
17449;SDS011;8842;51.244;7.102;2023-11-18T18:11:55;13.43;;;12.73;;
17449;SDS011;8842;51.244;7.102;2023-11-18T18:16:59;13.23;;;12.53;;
17449;SDS011;8842;51.244;7.102;2023-11-18T18:22:14;13.53;;;12.83;;
17449;SDS011;8842;51.244;7.102;2023-11-18T18:27:18;13.50;;;12.80;;
17449;SDS011;8842;51.244;7.102;2023-11-18T18:32:33;13.67;;;12.97;;
17449;SDS011;8842;51.244;7.102;2023-11-18T18:37:37;13.37;;;12.67;;
17449;SDS011;8842;51.244;7.102;2023-11-18T18:42:41;13.87;;;13.17;;
17449;SDS011;8842;51.244;7.102;2023-11-18T18:47:45;13.43;;;12.73;;
17449;SDS011;8842;51.244;7.102;2023-11-18T18:52:50;13.53;;;12.83;;
17449;SDS011;8842;51.244;7.102;2023-11-18T18:57:54;14.50;;;13.60;;
17449;SDS011;8842;51.244;7.102;2023-11-18T19:02:58;13.30;;;12.60;;
17449;SDS011;8842;51.244;7.102;2023-11-18T19:08:10;13.83;;;13.13;;
17449;SDS011;8842;51.244;7.102;2023-11-18T19:13:14;13.20;;;12.50;;
17449;SDS011;8842;51.244;7.102;2023-11-18T19:18:19;14.40;;;13.60;;
17449;SDS011;8842;51.244;7.102;2023-11-18T19:23:33;14.03;;;13.33;;
17449;SDS011;8842;51.244;7.102;2023-11-18T19:28:37;14.30;;;13.60;;
17449;SDS011;8842;51.244;7.102;2023-11-18T19:33:49;13.53;;;12.83;;
17449;SDS011;8842;51.244;7.102;2023-11-18T19:38:53;13.00;;;12.30;;
17449;SDS011;8842;51.244;7.102;2023-11-18T19:43:57;13.10;;;12.40;;
17449;SDS011;8842;51.244;7.102;2023-11-18T19:49:26;13.07;;;12.37;;
17449;SDS011;8842;51.244;7.102;2023-11-18T19:54:43;13.13;;;12.43;;
17449;SDS011;8842;51.244;7.102;2023-11-18T19:59:47;14.00;;;13.30;;
17449;SDS011;8842;51.244;7.102;2023-11-18T20:05:01;14.07;;;13.37;;
17449;SDS011;8842;51.244;7.102;2023-11-18T20:10:07;14.00;;;13.30;;
17449;SDS011;8842;51.244;7.102;2023-11-18T20:15:19;14.00;;;13.27;;
17449;SDS011;8842;51.244;7.102;2023-11-18T20:20:25;13.57;;;12.87;;
17449;SDS011;8842;51.244;7.102;2023-11-18T20:25:30;14.10;;;13.40;;
17449;SDS011;8842;51.244;7.102;2023-11-18T20:30:34;13.97;;;13.27;;
17449;SDS011;8842;51.244;7.102;2023-11-18T20:35:38;14.03;;;13.33;;
17449;SDS011;8842;51.244;7.102;2023-11-18T20:40:43;14.20;;;13.50;;
17449;SDS011;8842;51.244;7.102;2023-11-18T20:45:47;14.13;;;13.43;;
17449;SDS011;8842;51.244;7.102;2023-11-18T20:50:51;14.37;;;13.60;;
17449;SDS011;8842;51.244;7.102;2023-11-18T20:55:55;14.17;;;13.47;;
17449;SDS011;8842;51.244;7.102;2023-11-18T21:01:07;14.00;;;13.30;;
17449;SDS011;8842;51.244;7.102;2023-11-18T21:06:13;14.10;;;13.40;;
17449;SDS011;8842;51.244;7.102;2023-11-18T21:11:25;14.10;;;13.40;;
17449;SDS011;8842;51.244;7.102;2023-11-18T21:16:30;13.90;;;13.20;;
17449;SDS011;8842;51.244;7.102;2023-11-18T21:21:35;14.13;;;13.43;;
17449;SDS011;8842;51.244;7.102;2023-11-18T21:26:39;14.17;;;13.47;;
17449;SDS011;8842;51.244;7.102;2023-11-18T21:31:43;14.07;;;13.37;;
17449;SDS011;8842;51.244;7.102;2023-11-18T21:36:55;14.10;;;13.40;;
17449;SDS011;8842;51.244;7.102;2023-11-18T21:47:11;14.43;;;13.67;;
17449;SDS011;8842;51.244;7.102;2023-11-18T21:52:15;14.37;;;13.63;;
17449;SDS011;8842;51.244;7.102;2023-11-18T21:57:20;14.47;;;13.67;;
17449;SDS011;8842;51.244;7.102;2023-11-18T22:07:35;13.70;;;13.00;;
17449;SDS011;8842;51.244;7.102;2023-11-18T22:12:40;13.57;;;12.87;;
17449;SDS011;8842;51.244;7.102;2023-11-18T22:17:54;13.43;;;12.73;;
17449;SDS011;8842;51.244;7.102;2023-11-18T22:28:15;14.00;;;13.30;;
17449;SDS011;8842;51.244;7.102;2023-11-18T22:33:20;13.80;;;13.10;;
17449;SDS011;8842;51.244;7.102;2023-11-18T22:38:34;13.30;;;12.60;;
17449;SDS011;8842;51.244;7.102;2023-11-18T22:43:40;13.97;;;13.27;;
17449;SDS011;8842;51.244;7.102;2023-11-18T22:48:54;13.10;;;12.40;;
17449;SDS011;8842;51.244;7.102;2023-11-18T22:53:58;13.30;;;12.60;;
17449;SDS011;8842;51.244;7.102;2023-11-18T22:59:12;12.83;;;12.13;;
17449;SDS011;8842;51.244;7.102;2023-11-18T23:04:16;13.23;;;12.53;;
17449;SDS011;8842;51.244;7.102;2023-11-18T23:09:20;13.40;;;12.70;;
17449;SDS011;8842;51.244;7.102;2023-11-18T23:14:35;13.53;;;12.83;;
17449;SDS011;8842;51.244;7.102;2023-11-18T23:19:39;13.30;;;12.60;;
17449;SDS011;8842;51.244;7.102;2023-11-18T23:24:51;13.10;;;12.40;;
17449;SDS011;8842;51.244;7.102;2023-11-18T23:29:55;13.03;;;12.33;;
17449;SDS011;8842;51.244;7.102;2023-11-18T23:34:59;13.03;;;12.33;;
17449;SDS011;8842;51.244;7.102;2023-11-18T23:40:08;12.97;;;12.27;;
17449;SDS011;8842;51.244;7.102;2023-11-18T23:45:23;13.47;;;12.77;;
17449;SDS011;8842;51.244;7.102;2023-11-18T23:50:27;13.43;;;12.73;;
17449;SDS011;8842;51.244;7.102;2023-11-18T23:55:33;13.47;;;12.77;;
